sensor_id;sensor_type;location;lat;lon;timestamp;P1;durP1;ratioP1;P2;durP2;ratioP2
48516;SDS011;34310;51.904;4.256;2022-12-29T00:00:59;10.27;;;7.68;;
48516;SDS011;34310;51.904;4.256;2022-12-29T00:03:28;10.70;;;7.45;;
48516;SDS011;34310;51.904;4.256;2022-12-29T00:05:55;8.57;;;6.35;;
48516;SDS011;34310;51.904;4.256;2022-12-29T00:08:24;9.85;;;7.15;;
48516;SDS011;34310;51.904;4.256;2022-12-29T00:11:12;9.10;;;6.85;;
48516;SDS011;34310;51.904;4.256;2022-12-29T00:13:48;8.95;;;6.40;;
48516;SDS011;34310;51.904;4.256;2022-12-29T00:16:34;10.00;;;6.78;;
48516;SDS011;34310;51.904;4.256;2022-12-29T00:19:04;9.52;;;6.85;;
48516;SDS011;34310;51.904;4.256;2022-12-29T00:21:32;10.50;;;6.63;;
48516;SDS011;34310;51.904;4.256;2022-12-29T00:24:19;8.50;;;6.13;;
48516;SDS011;34310;51.904;4.256;2022-12-29T00:29:49;8.68;;;6.47;;
48516;SDS011;34310;51.904;4.256;2022-12-29T00:32:35;8.82;;;6.00;;
48516;SDS011;34310;51.904;4.256;2022-12-29T00:35:31;11.27;;;6.03;;
48516;SDS011;34310;51.904;4.256;2022-12-29T00:38:11;7.07;;;5.65;;
48516;SDS011;34310;51.904;4.256;2022-12-29T00:40:58;8.20;;;5.85;;
48516;SDS011;34310;51.904;4.256;2022-12-29T00:43:44;8.25;;;5.93;;
48516;SDS011;34310;51.904;4.256;2022-12-29T00:46:30;7.70;;;5.32;;
48516;SDS011;34310;51.904;4.256;2022-12-29T00:49:01;6.18;;;5.00;;
48516;SDS011;34310;51.904;4.256;2022-12-29T00:51:48;7.75;;;5.07;;
48516;SDS011;34310;51.904;4.256;2022-12-29T00:54:16;7.28;;;5.53;;
48516;SDS011;34310;51.904;4.256;2022-12-29T00:56:47;6.88;;;5.13;;
48516;SDS011;34310;51.904;4.256;2022-12-29T00:59:15;7.70;;;5.35;;
48516;SDS011;34310;51.904;4.256;2022-12-29T01:01:43;6.18;;;4.82;;
48516;SDS011;34310;51.904;4.256;2022-12-29T01:04:11;7.40;;;4.95;;
48516;SDS011;34310;51.904;4.256;2022-12-29T01:06:39;7.07;;;4.53;;
48516;SDS011;34310;51.904;4.256;2022-12-29T01:09:08;7.60;;;4.50;;
48516;SDS011;34310;51.904;4.256;2022-12-29T01:11:54;6.95;;;4.38;;
48516;SDS011;34310;51.904;4.256;2022-12-29T01:14:22;6.03;;;4.60;;
48516;SDS011;34310;51.904;4.256;2022-12-29T01:16:50;5.88;;;4.50;;
48516;SDS011;34310;51.904;4.256;2022-12-29T01:19:18;5.18;;;4.00;;
48516;SDS011;34310;51.904;4.256;2022-12-29T01:21:47;6.07;;;4.28;;
48516;SDS011;34310;51.904;4.256;2022-12-29T01:24:15;5.65;;;4.20;;
48516;SDS011;34310;51.904;4.256;2022-12-29T01:26:44;5.35;;;3.80;;
48516;SDS011;34310;51.904;4.256;2022-12-29T01:29:12;4.93;;;3.95;;
48516;SDS011;34310;51.904;4.256;2022-12-29T01:31:39;6.22;;;4.30;;
48516;SDS011;34310;51.904;4.256;2022-12-29T01:34:07;5.10;;;3.50;;
48516;SDS011;34310;51.904;4.256;2022-12-29T01:36:34;4.38;;;3.65;;
48516;SDS011;34310;51.904;4.256;2022-12-29T01:39:02;5.22;;;3.75;;
48516;SDS011;34310;51.904;4.256;2022-12-29T01:41:29;5.35;;;3.97;;
48516;SDS011;34310;51.904;4.256;2022-12-29T01:43:58;5.32;;;3.60;;
48516;SDS011;34310;51.904;4.256;2022-12-29T01:51:43;4.10;;;3.15;;
48516;SDS011;34310;51.904;4.256;2022-12-29T01:54:24;4.97;;;3.40;;
48516;SDS011;34310;51.904;4.256;2022-12-29T01:56:53;3.88;;;2.67;;
48516;SDS011;34310;51.904;4.256;2022-12-29T01:59:24;4.38;;;3.30;;
48516;SDS011;34310;51.904;4.256;2022-12-29T02:01:57;3.88;;;2.90;;
48516;SDS011;34310;51.904;4.256;2022-12-29T02:04:26;3.65;;;2.67;;
48516;SDS011;34310;51.904;4.256;2022-12-29T02:06:57;3.50;;;2.85;;
48516;SDS011;34310;51.904;4.256;2022-12-29T02:09:32;3.67;;;2.70;;
48516;SDS011;34310;51.904;4.256;2022-12-29T02:11:59;4.07;;;2.85;;
48516;SDS011;34310;51.904;4.256;2022-12-29T02:14:28;2.90;;;2.60;;
48516;SDS011;34310;51.904;4.256;2022-12-29T02:19:51;3.60;;;2.58;;
48516;SDS011;34310;51.904;4.256;2022-12-29T02:22:56;3.58;;;2.50;;
48516;SDS011;34310;51.904;4.256;2022-12-29T02:25:45;3.88;;;2.42;;
48516;SDS011;34310;51.904;4.256;2022-12-29T02:28:45;3.70;;;2.55;;
48516;SDS011;34310;51.904;4.256;2022-12-29T02:31:29;3.63;;;2.13;;
48516;SDS011;34310;51.904;4.256;2022-12-29T02:34:16;2.50;;;2.05;;
48516;SDS011;34310;51.904;4.256;2022-12-29T02:37:06;3.35;;;1.95;;
48516;SDS011;34310;51.904;4.256;2022-12-29T02:39:46;4.03;;;2.08;;
48516;SDS011;34310;51.904;4.256;2022-12-29T02:48:28;2.85;;;1.70;;
48516;SDS011;34310;51.904;4.256;2022-12-29T02:51:24;4.10;;;1.90;;
48516;SDS011;34310;51.904;4.256;2022-12-29T02:53:56;3.72;;;1.88;;
48516;SDS011;34310;51.904;4.256;2022-12-29T02:56:43;3.05;;;1.52;;
48516;SDS011;34310;51.904;4.256;2022-12-29T02:59:10;2.90;;;1.80;;
48516;SDS011;34310;51.904;4.256;2022-12-29T03:04:40;2.88;;;1.77;;
48516;SDS011;34310;51.904;4.256;2022-12-29T03:09:56;2.90;;;1.55;;
48516;SDS011;34310;51.904;4.256;2022-12-29T03:12:42;2.75;;;1.52;;
48516;SDS011;34310;51.904;4.256;2022-12-29T03:15:44;2.80;;;1.70;;
48516;SDS011;34310;51.904;4.256;2022-12-29T03:24:13;2.80;;;1.45;;
48516;SDS011;34310;51.904;4.256;2022-12-29T03:26:43;2.75;;;1.55;;
48516;SDS011;34310;51.904;4.256;2022-12-29T03:29:14;4.05;;;1.48;;
48516;SDS011;34310;51.904;4.256;2022-12-29T03:31:44;3.67;;;1.70;;
48516;SDS011;34310;51.904;4.256;2022-12-29T03:34:13;2.50;;;1.30;;
48516;SDS011;34310;51.904;4.256;2022-12-29T03:36:47;3.53;;;1.60;;
48516;SDS011;34310;51.904;4.256;2022-12-29T03:39:26;2.75;;;1.60;;
48516;SDS011;34310;51.904;4.256;2022-12-29T03:41:57;2.13;;;1.40;;
48516;SDS011;34310;51.904;4.256;2022-12-29T03:44:31;3.80;;;1.73;;
48516;SDS011;34310;51.904;4.256;2022-12-29T03:47:03;3.55;;;1.92;;
48516;SDS011;34310;51.904;4.256;2022-12-29T03:49:32;2.95;;;1.55;;
48516;SDS011;34310;51.904;4.256;2022-12-29T03:52:00;3.40;;;1.38;;
48516;SDS011;34310;51.904;4.256;2022-12-29T03:54:28;3.70;;;1.48;;
48516;SDS011;34310;51.904;4.256;2022-12-29T03:56:55;4.10;;;1.52;;
48516;SDS011;34310;51.904;4.256;2022-12-29T03:59:23;3.15;;;1.38;;
48516;SDS011;34310;51.904;4.256;2022-12-29T04:01:50;3.20;;;1.58;;
48516;SDS011;34310;51.904;4.256;2022-12-29T04:04:18;2.55;;;1.27;;
48516;SDS011;34310;51.904;4.256;2022-12-29T04:06:45;3.72;;;1.60;;
48516;SDS011;34310;51.904;4.256;2022-12-29T04:09:12;3.30;;;1.30;;
48516;SDS011;34310;51.904;4.256;2022-12-29T04:11:40;5.18;;;1.40;;
48516;SDS011;34310;51.904;4.256;2022-12-29T04:14:07;3.53;;;1.50;;
48516;SDS011;34310;51.904;4.256;2022-12-29T04:16:34;5.20;;;1.25;;
48516;SDS011;34310;51.904;4.256;2022-12-29T04:19:02;1.92;;;1.27;;
48516;SDS011;34310;51.904;4.256;2022-12-29T04:21:29;1.90;;;1.00;;
48516;SDS011;34310;51.904;4.256;2022-12-29T04:23:56;3.80;;;1.35;;
48516;SDS011;34310;51.904;4.256;2022-12-29T04:26:24;4.50;;;1.58;;
48516;SDS011;34310;51.904;4.256;2022-12-29T04:28:51;4.90;;;1.73;;
48516;SDS011;34310;51.904;4.256;2022-12-29T04:31:19;3.33;;;1.55;;
48516;SDS011;34310;51.904;4.256;2022-12-29T04:33:46;2.83;;;1.42;;
48516;SDS011;34310;51.904;4.256;2022-12-29T04:36:13;2.63;;;1.38;;
48516;SDS011;34310;51.904;4.256;2022-12-29T04:38:43;2.90;;;1.27;;
48516;SDS011;34310;51.904;4.256;2022-12-29T04:41:11;5.18;;;1.70;;
48516;SDS011;34310;51.904;4.256;2022-12-29T04:43:38;4.38;;;1.30;;
48516;SDS011;34310;51.904;4.256;2022-12-29T04:46:05;3.80;;;1.40;;
48516;SDS011;34310;51.904;4.256;2022-12-29T04:48:33;3.97;;;1.50;;
48516;SDS011;34310;51.904;4.256;2022-12-29T04:51:00;3.38;;;1.30;;
48516;SDS011;34310;51.904;4.256;2022-12-29T04:53:27;1.90;;;1.20;;
48516;SDS011;34310;51.904;4.256;2022-12-29T04:55:55;4.07;;;1.50;;
48516;SDS011;34310;51.904;4.256;2022-12-29T04:58:22;3.00;;;1.27;;
48516;SDS011;34310;51.904;4.256;2022-12-29T05:00:50;4.28;;;1.55;;
48516;SDS011;34310;51.904;4.256;2022-12-29T05:03:18;3.50;;;1.20;;
48516;SDS011;34310;51.904;4.256;2022-12-29T05:05:45;4.90;;;1.40;;
48516;SDS011;34310;51.904;4.256;2022-12-29T05:08:13;4.30;;;1.55;;
48516;SDS011;34310;51.904;4.256;2022-12-29T05:10:43;4.03;;;1.40;;
48516;SDS011;34310;51.904;4.256;2022-12-29T05:13:11;4.72;;;1.40;;
48516;SDS011;34310;51.904;4.256;2022-12-29T05:15:39;2.97;;;1.13;;
48516;SDS011;34310;51.904;4.256;2022-12-29T05:18:06;4.28;;;1.50;;
48516;SDS011;34310;51.904;4.256;2022-12-29T05:20:34;4.47;;;1.17;;
48516;SDS011;34310;51.904;4.256;2022-12-29T05:23:01;5.15;;;1.23;;
48516;SDS011;34310;51.904;4.256;2022-12-29T05:25:28;4.03;;;1.27;;
48516;SDS011;34310;51.904;4.256;2022-12-29T05:27:56;3.72;;;1.38;;
48516;SDS011;34310;51.904;4.256;2022-12-29T05:30:23;4.00;;;1.48;;
48516;SDS011;34310;51.904;4.256;2022-12-29T05:32:50;4.28;;;1.42;;
48516;SDS011;34310;51.904;4.256;2022-12-29T05:35:18;3.50;;;1.27;;
48516;SDS011;34310;51.904;4.256;2022-12-29T05:37:45;4.85;;;1.85;;
48516;SDS011;34310;51.904;4.256;2022-12-29T05:40:12;3.40;;;1.30;;
48516;SDS011;34310;51.904;4.256;2022-12-29T05:42:39;4.47;;;1.40;;
48516;SDS011;34310;51.904;4.256;2022-12-29T05:45:07;2.42;;;1.00;;
48516;SDS011;34310;51.904;4.256;2022-12-29T05:47:35;2.55;;;1.10;;
48516;SDS011;34310;51.904;4.256;2022-12-29T05:50:02;3.53;;;1.08;;
48516;SDS011;34310;51.904;4.256;2022-12-29T05:52:30;4.10;;;1.45;;
48516;SDS011;34310;51.904;4.256;2022-12-29T05:54:57;4.88;;;1.50;;
48516;SDS011;34310;51.904;4.256;2022-12-29T05:57:24;3.35;;;1.13;;
48516;SDS011;34310;51.904;4.256;2022-12-29T05:59:52;2.95;;;1.27;;
48516;SDS011;34310;51.904;4.256;2022-12-29T06:02:19;4.70;;;1.30;;
48516;SDS011;34310;51.904;4.256;2022-12-29T06:04:47;3.55;;;1.25;;
48516;SDS011;34310;51.904;4.256;2022-12-29T06:07:14;3.72;;;1.40;;
48516;SDS011;34310;51.904;4.256;2022-12-29T06:09:42;5.13;;;1.40;;
48516;SDS011;34310;51.904;4.256;2022-12-29T06:12:09;4.55;;;1.50;;
48516;SDS011;34310;51.904;4.256;2022-12-29T06:14:36;4.35;;;1.45;;
48516;SDS011;34310;51.904;4.256;2022-12-29T06:17:04;4.05;;;1.50;;
48516;SDS011;34310;51.904;4.256;2022-12-29T06:19:32;3.70;;;1.33;;
48516;SDS011;34310;51.904;4.256;2022-12-29T06:21:59;4.55;;;1.50;;
48516;SDS011;34310;51.904;4.256;2022-12-29T06:24:26;3.55;;;1.38;;
48516;SDS011;34310;51.904;4.256;2022-12-29T06:26:54;4.70;;;1.48;;
48516;SDS011;34310;51.904;4.256;2022-12-29T06:29:21;5.35;;;1.85;;
48516;SDS011;34310;51.904;4.256;2022-12-29T06:31:48;5.53;;;1.73;;
48516;SDS011;34310;51.904;4.256;2022-12-29T06:34:17;6.13;;;1.52;;
48516;SDS011;34310;51.904;4.256;2022-12-29T06:36:44;7.03;;;2.05;;
48516;SDS011;34310;51.904;4.256;2022-12-29T06:39:12;4.40;;;1.55;;
48516;SDS011;34310;51.904;4.256;2022-12-29T06:41:39;5.53;;;1.50;;
48516;SDS011;34310;51.904;4.256;2022-12-29T06:44:06;5.53;;;1.58;;
48516;SDS011;34310;51.904;4.256;2022-12-29T06:46:33;6.97;;;1.75;;
48516;SDS011;34310;51.904;4.256;2022-12-29T06:49:01;3.35;;;1.30;;
48516;SDS011;34310;51.904;4.256;2022-12-29T06:51:28;4.88;;;1.42;;
48516;SDS011;34310;51.904;4.256;2022-12-29T06:53:55;3.97;;;1.42;;
48516;SDS011;34310;51.904;4.256;2022-12-29T06:56:23;5.80;;;1.98;;
48516;SDS011;34310;51.904;4.256;2022-12-29T06:58:50;5.10;;;1.98;;
48516;SDS011;34310;51.904;4.256;2022-12-29T07:01:17;5.10;;;1.20;;
48516;SDS011;34310;51.904;4.256;2022-12-29T07:03:45;6.63;;;1.38;;
48516;SDS011;34310;51.904;4.256;2022-12-29T07:06:12;5.35;;;1.73;;
48516;SDS011;34310;51.904;4.256;2022-12-29T07:08:39;8.55;;;1.73;;
48516;SDS011;34310;51.904;4.256;2022-12-29T07:11:07;8.27;;;1.55;;
48516;SDS011;34310;51.904;4.256;2022-12-29T07:13:34;7.15;;;1.70;;
48516;SDS011;34310;51.904;4.256;2022-12-29T07:16:06;5.10;;;1.55;;
48516;SDS011;34310;51.904;4.256;2022-12-29T07:18:35;6.38;;;1.75;;
48516;SDS011;34310;51.904;4.256;2022-12-29T07:21:02;8.85;;;2.33;;
48516;SDS011;34310;51.904;4.256;2022-12-29T07:23:30;6.30;;;1.92;;
48516;SDS011;34310;51.904;4.256;2022-12-29T07:26:01;6.53;;;1.80;;
48516;SDS011;34310;51.904;4.256;2022-12-29T07:28:30;10.48;;;2.20;;
48516;SDS011;34310;51.904;4.256;2022-12-29T07:31:00;5.50;;;1.60;;
48516;SDS011;34310;51.904;4.256;2022-12-29T07:33:28;6.60;;;2.33;;
48516;SDS011;34310;51.904;4.256;2022-12-29T07:35:57;7.43;;;1.90;;
48516;SDS011;34310;51.904;4.256;2022-12-29T07:38:25;5.45;;;1.70;;
48516;SDS011;34310;51.904;4.256;2022-12-29T07:40:56;5.57;;;1.70;;
48516;SDS011;34310;51.904;4.256;2022-12-29T07:43:24;5.57;;;1.80;;
48516;SDS011;34310;51.904;4.256;2022-12-29T07:45:52;5.85;;;1.70;;
48516;SDS011;34310;51.904;4.256;2022-12-29T07:48:19;6.97;;;2.40;;
48516;SDS011;34310;51.904;4.256;2022-12-29T07:50:47;5.45;;;1.95;;
48516;SDS011;34310;51.904;4.256;2022-12-29T07:53:14;6.32;;;1.75;;
48516;SDS011;34310;51.904;4.256;2022-12-29T07:55:42;6.78;;;2.28;;
48516;SDS011;34310;51.904;4.256;2022-12-29T07:58:09;6.28;;;2.40;;
48516;SDS011;34310;51.904;4.256;2022-12-29T08:00:37;8.82;;;2.47;;
48516;SDS011;34310;51.904;4.256;2022-12-29T08:03:05;8.30;;;2.85;;
48516;SDS011;34310;51.904;4.256;2022-12-29T08:05:32;7.90;;;2.90;;
48516;SDS011;34310;51.904;4.256;2022-12-29T08:08:00;12.07;;;3.83;;
48516;SDS011;34310;51.904;4.256;2022-12-29T08:10:27;10.20;;;3.85;;
48516;SDS011;34310;51.904;4.256;2022-12-29T08:12:55;8.68;;;4.00;;
48516;SDS011;34310;51.904;4.256;2022-12-29T08:15:22;9.57;;;4.78;;
48516;SDS011;34310;51.904;4.256;2022-12-29T08:17:57;12.95;;;5.35;;
48516;SDS011;34310;51.904;4.256;2022-12-29T08:20:25;12.40;;;5.45;;
48516;SDS011;34310;51.904;4.256;2022-12-29T08:22:52;14.07;;;6.13;;
48516;SDS011;34310;51.904;4.256;2022-12-29T08:25:19;12.23;;;6.25;;
48516;SDS011;34310;51.904;4.256;2022-12-29T08:27:47;15.75;;;6.85;;
48516;SDS011;34310;51.904;4.256;2022-12-29T08:30:14;13.50;;;7.00;;
48516;SDS011;34310;51.904;4.256;2022-12-29T08:32:42;13.73;;;7.57;;
48516;SDS011;34310;51.904;4.256;2022-12-29T08:35:09;16.52;;;8.57;;
48516;SDS011;34310;51.904;4.256;2022-12-29T08:37:38;18.45;;;8.63;;
48516;SDS011;34310;51.904;4.256;2022-12-29T08:40:06;19.42;;;9.10;;
48516;SDS011;34310;51.904;4.256;2022-12-29T08:42:34;17.13;;;9.57;;
48516;SDS011;34310;51.904;4.256;2022-12-29T08:45:01;21.27;;;9.77;;
48516;SDS011;34310;51.904;4.256;2022-12-29T08:47:29;18.15;;;10.25;;
48516;SDS011;34310;51.904;4.256;2022-12-29T08:49:56;17.98;;;11.18;;
48516;SDS011;34310;51.904;4.256;2022-12-29T08:52:23;18.45;;;11.00;;
48516;SDS011;34310;51.904;4.256;2022-12-29T08:54:51;21.17;;;12.57;;
48516;SDS011;34310;51.904;4.256;2022-12-29T08:57:18;20.23;;;11.13;;
48516;SDS011;34310;51.904;4.256;2022-12-29T08:59:46;18.88;;;11.55;;
48516;SDS011;34310;51.904;4.256;2022-12-29T09:02:13;18.48;;;11.23;;
48516;SDS011;34310;51.904;4.256;2022-12-29T09:04:49;18.90;;;11.70;;
48516;SDS011;34310;51.904;4.256;2022-12-29T09:07:16;16.60;;;11.27;;
48516;SDS011;34310;51.904;4.256;2022-12-29T09:09:43;20.10;;;12.80;;
48516;SDS011;34310;51.904;4.256;2022-12-29T09:12:10;20.05;;;12.68;;
48516;SDS011;34310;51.904;4.256;2022-12-29T09:14:38;21.05;;;12.75;;
48516;SDS011;34310;51.904;4.256;2022-12-29T09:17:05;18.85;;;11.52;;
48516;SDS011;34310;51.904;4.256;2022-12-29T09:19:51;18.70;;;12.07;;
48516;SDS011;34310;51.904;4.256;2022-12-29T09:22:18;21.92;;;12.48;;
48516;SDS011;34310;51.904;4.256;2022-12-29T09:24:46;18.70;;;11.55;;
48516;SDS011;34310;51.904;4.256;2022-12-29T09:27:13;20.50;;;12.07;;
48516;SDS011;34310;51.904;4.256;2022-12-29T09:29:41;18.50;;;11.68;;
48516;SDS011;34310;51.904;4.256;2022-12-29T09:32:08;21.05;;;12.32;;
48516;SDS011;34310;51.904;4.256;2022-12-29T09:34:43;22.02;;;12.55;;
48516;SDS011;34310;51.904;4.256;2022-12-29T09:37:10;21.63;;;13.05;;
48516;SDS011;34310;51.904;4.256;2022-12-29T09:39:38;19.65;;;12.07;;
48516;SDS011;34310;51.904;4.256;2022-12-29T09:47:42;21.55;;;12.32;;
48516;SDS011;34310;51.904;4.256;2022-12-29T09:50:24;21.17;;;11.45;;
48516;SDS011;34310;51.904;4.256;2022-12-29T09:56:01;21.10;;;12.35;;
48516;SDS011;34310;51.904;4.256;2022-12-29T10:01:26;19.77;;;11.88;;
48516;SDS011;34310;51.904;4.256;2022-12-29T10:03:58;22.00;;;12.77;;
48516;SDS011;34310;51.904;4.256;2022-12-29T10:06:33;20.63;;;12.38;;
48516;SDS011;34310;51.904;4.256;2022-12-29T10:15:43;21.02;;;11.55;;
48516;SDS011;34310;51.904;4.256;2022-12-29T10:21:13;20.60;;;11.88;;
48516;SDS011;34310;51.904;4.256;2022-12-29T10:23:57;21.02;;;11.80;;
48516;SDS011;34310;51.904;4.256;2022-12-29T10:26:30;23.20;;;12.80;;
48516;SDS011;34310;51.904;4.256;2022-12-29T10:29:05;22.02;;;12.15;;
48516;SDS011;34310;51.904;4.256;2022-12-29T10:31:42;20.92;;;12.30;;
48516;SDS011;34310;51.904;4.256;2022-12-29T10:34:42;21.55;;;12.40;;
48516;SDS011;34310;51.904;4.256;2022-12-29T10:39:49;23.85;;;14.05;;
48516;SDS011;34310;51.904;4.256;2022-12-29T10:42:28;20.48;;;12.68;;
48516;SDS011;34310;51.904;4.256;2022-12-29T10:45:04;23.23;;;12.75;;
48516;SDS011;34310;51.904;4.256;2022-12-29T10:47:49;21.30;;;12.90;;
48516;SDS011;34310;51.904;4.256;2022-12-29T10:50:30;23.90;;;12.95;;
48516;SDS011;34310;51.904;4.256;2022-12-29T10:52:58;22.70;;;13.15;;
48516;SDS011;34310;51.904;4.256;2022-12-29T10:55:30;23.20;;;13.25;;
48516;SDS011;34310;51.904;4.256;2022-12-29T10:58:05;23.90;;;13.13;;
48516;SDS011;34310;51.904;4.256;2022-12-29T11:00:36;22.40;;;13.48;;
48516;SDS011;34310;51.904;4.256;2022-12-29T11:05:55;23.50;;;14.10;;
48516;SDS011;34310;51.904;4.256;2022-12-29T11:08:28;24.02;;;14.32;;
48516;SDS011;34310;51.904;4.256;2022-12-29T11:11:03;25.67;;;14.35;;
48516;SDS011;34310;51.904;4.256;2022-12-29T11:13:33;25.77;;;14.93;;
48516;SDS011;34310;51.904;4.256;2022-12-29T11:16:12;26.23;;;14.85;;
48516;SDS011;34310;51.904;4.256;2022-12-29T11:18:40;25.17;;;14.75;;
48516;SDS011;34310;51.904;4.256;2022-12-29T11:21:55;23.23;;;14.57;;
48516;SDS011;34310;51.904;4.256;2022-12-29T11:24:18;25.63;;;14.13;;
48516;SDS011;34310;51.904;4.256;2022-12-29T11:26:52;26.08;;;15.40;;
48516;SDS011;34310;51.904;4.256;2022-12-29T11:29:25;26.60;;;15.70;;
48516;SDS011;34310;51.904;4.256;2022-12-29T11:31:55;23.00;;;13.48;;
48516;SDS011;34310;51.904;4.256;2022-12-29T11:34:32;24.77;;;14.40;;
48516;SDS011;34310;51.904;4.256;2022-12-29T11:37:05;26.90;;;16.10;;
48516;SDS011;34310;51.904;4.256;2022-12-29T11:39:57;24.85;;;14.80;;
48516;SDS011;34310;51.904;4.256;2022-12-29T11:42:40;23.27;;;14.73;;
48516;SDS011;34310;51.904;4.256;2022-12-29T11:45:16;25.02;;;14.77;;
48516;SDS011;34310;51.904;4.256;2022-12-29T11:47:50;27.08;;;15.77;;
48516;SDS011;34310;51.904;4.256;2022-12-29T11:50:24;25.00;;;14.73;;
48516;SDS011;34310;51.904;4.256;2022-12-29T11:55:34;24.25;;;14.80;;
48516;SDS011;34310;51.904;4.256;2022-12-29T11:58:02;25.45;;;14.70;;
48516;SDS011;34310;51.904;4.256;2022-12-29T12:00:32;26.33;;;15.30;;
48516;SDS011;34310;51.904;4.256;2022-12-29T12:05:48;25.63;;;14.80;;
48516;SDS011;34310;51.904;4.256;2022-12-29T12:08:28;26.40;;;15.07;;
48516;SDS011;34310;51.904;4.256;2022-12-29T12:11:22;23.70;;;14.30;;
48516;SDS011;34310;51.904;4.256;2022-12-29T12:14:00;25.20;;;14.02;;
48516;SDS011;34310;51.904;4.256;2022-12-29T12:16:33;22.58;;;13.65;;
48516;SDS011;34310;51.904;4.256;2022-12-29T12:19:13;20.83;;;12.27;;
48516;SDS011;34310;51.904;4.256;2022-12-29T12:25:03;19.90;;;12.32;;
48516;SDS011;34310;51.904;4.256;2022-12-29T12:27:54;22.17;;;12.82;;
48516;SDS011;34310;51.904;4.256;2022-12-29T12:33:06;23.88;;;13.88;;
48516;SDS011;34310;51.904;4.256;2022-12-29T12:35:53;24.38;;;13.52;;
48516;SDS011;34310;51.904;4.256;2022-12-29T12:43:44;23.67;;;13.68;;
48516;SDS011;34310;51.904;4.256;2022-12-29T12:51:47;24.85;;;14.52;;
48516;SDS011;34310;51.904;4.256;2022-12-29T12:57:27;23.80;;;14.77;;
48516;SDS011;34310;51.904;4.256;2022-12-29T13:00:17;25.65;;;14.82;;
48516;SDS011;34310;51.904;4.256;2022-12-29T13:05:54;21.17;;;13.95;;
48516;SDS011;34310;51.904;4.256;2022-12-29T13:16:28;25.88;;;15.85;;
48516;SDS011;34310;51.904;4.256;2022-12-29T13:24:15;24.67;;;15.02;;
48516;SDS011;34310;51.904;4.256;2022-12-29T13:29:44;24.15;;;15.60;;
48516;SDS011;34310;51.904;4.256;2022-12-29T13:35:16;25.45;;;15.40;;
48516;SDS011;34310;51.904;4.256;2022-12-29T13:38:00;22.30;;;14.57;;
48516;SDS011;34310;51.904;4.256;2022-12-29T13:40:30;23.83;;;14.15;;
48516;SDS011;34310;51.904;4.256;2022-12-29T13:43:02;26.45;;;15.15;;
48516;SDS011;34310;51.904;4.256;2022-12-29T13:45:31;22.83;;;14.38;;
48516;SDS011;34310;51.904;4.256;2022-12-29T13:48:02;22.23;;;14.10;;
48516;SDS011;34310;51.904;4.256;2022-12-29T13:50:34;22.55;;;13.70;;
48516;SDS011;34310;51.904;4.256;2022-12-29T13:53:19;25.15;;;14.55;;
48516;SDS011;34310;51.904;4.256;2022-12-29T13:56:03;20.67;;;13.07;;
48516;SDS011;34310;51.904;4.256;2022-12-29T13:58:46;22.42;;;13.82;;
48516;SDS011;34310;51.904;4.256;2022-12-29T14:01:38;20.83;;;13.30;;
48516;SDS011;34310;51.904;4.256;2022-12-29T14:04:26;20.90;;;12.43;;
48516;SDS011;34310;51.904;4.256;2022-12-29T14:07:00;19.08;;;12.45;;
48516;SDS011;34310;51.904;4.256;2022-12-29T14:09:48;17.50;;;11.57;;
48516;SDS011;34310;51.904;4.256;2022-12-29T14:12:27;18.52;;;11.50;;
48516;SDS011;34310;51.904;4.256;2022-12-29T14:17:37;18.60;;;12.23;;
48516;SDS011;34310;51.904;4.256;2022-12-29T14:20:15;19.10;;;12.85;;
48516;SDS011;34310;51.904;4.256;2022-12-29T14:22:59;17.38;;;12.35;;
48516;SDS011;34310;51.904;4.256;2022-12-29T14:25:58;17.75;;;11.88;;
48516;SDS011;34310;51.904;4.256;2022-12-29T14:28:33;17.02;;;11.20;;
48516;SDS011;34310;51.904;4.256;2022-12-29T14:31:04;16.20;;;10.77;;
48516;SDS011;34310;51.904;4.256;2022-12-29T14:36:53;15.48;;;9.80;;
48516;SDS011;34310;51.904;4.256;2022-12-29T14:50:22;16.15;;;10.45;;
48516;SDS011;34310;51.904;4.256;2022-12-29T14:52:57;15.50;;;10.15;;
48516;SDS011;34310;51.904;4.256;2022-12-29T14:55:40;14.98;;;9.32;;
48516;SDS011;34310;51.904;4.256;2022-12-29T14:58:17;14.00;;;8.95;;
48516;SDS011;34310;51.904;4.256;2022-12-29T15:01:02;12.77;;;8.90;;
48516;SDS011;34310;51.904;4.256;2022-12-29T15:03:32;15.60;;;9.88;;
48516;SDS011;34310;51.904;4.256;2022-12-29T15:06:10;14.90;;;9.32;;
48516;SDS011;34310;51.904;4.256;2022-12-29T15:09:03;14.20;;;9.18;;
48516;SDS011;34310;51.904;4.256;2022-12-29T15:14:02;17.35;;;10.13;;
48516;SDS011;34310;51.904;4.256;2022-12-29T15:16:50;16.13;;;9.77;;
48516;SDS011;34310;51.904;4.256;2022-12-29T15:19:24;14.73;;;9.45;;
48516;SDS011;34310;51.904;4.256;2022-12-29T15:21:53;16.25;;;9.52;;
48516;SDS011;34310;51.904;4.256;2022-12-29T15:24:21;14.77;;;8.75;;
48516;SDS011;34310;51.904;4.256;2022-12-29T15:26:50;14.60;;;8.88;;
48516;SDS011;34310;51.904;4.256;2022-12-29T15:34:44;16.23;;;9.27;;
48516;SDS011;34310;51.904;4.256;2022-12-29T15:37:20;13.07;;;8.68;;
48516;SDS011;34310;51.904;4.256;2022-12-29T15:39:53;14.27;;;9.15;;
48516;SDS011;34310;51.904;4.256;2022-12-29T15:45:29;13.87;;;8.73;;
48516;SDS011;34310;51.904;4.256;2022-12-29T15:47:59;15.23;;;9.15;;
48516;SDS011;34310;51.904;4.256;2022-12-29T15:50:33;16.42;;;9.13;;
48516;SDS011;34310;51.904;4.256;2022-12-29T15:53:09;14.13;;;8.90;;
48516;SDS011;34310;51.904;4.256;2022-12-29T15:55:39;13.07;;;8.13;;
48516;SDS011;34310;51.904;4.256;2022-12-29T15:58:18;12.73;;;8.70;;
48516;SDS011;34310;51.904;4.256;2022-12-29T16:00:57;14.15;;;8.38;;
48516;SDS011;34310;51.904;4.256;2022-12-29T16:03:27;12.80;;;8.25;;
48516;SDS011;34310;51.904;4.256;2022-12-29T16:06:23;14.68;;;8.70;;
48516;SDS011;34310;51.904;4.256;2022-12-29T16:09:06;13.55;;;8.32;;
48516;SDS011;34310;51.904;4.256;2022-12-29T16:11:43;13.77;;;8.30;;
48516;SDS011;34310;51.904;4.256;2022-12-29T16:14:40;13.30;;;8.10;;
48516;SDS011;34310;51.904;4.256;2022-12-29T16:17:12;12.02;;;7.70;;
48516;SDS011;34310;51.904;4.256;2022-12-29T16:19:50;13.15;;;7.88;;
48516;SDS011;34310;51.904;4.256;2022-12-29T16:22:32;11.93;;;7.47;;
48516;SDS011;34310;51.904;4.256;2022-12-29T16:25:04;13.18;;;8.35;;
48516;SDS011;34310;51.904;4.256;2022-12-29T16:27:42;14.40;;;8.80;;
48516;SDS011;34310;51.904;4.256;2022-12-29T16:30:20;13.32;;;8.30;;
48516;SDS011;34310;51.904;4.256;2022-12-29T16:33:00;12.55;;;7.68;;
48516;SDS011;34310;51.904;4.256;2022-12-29T16:35:34;13.77;;;8.32;;
48516;SDS011;34310;51.904;4.256;2022-12-29T16:43:29;14.63;;;8.90;;
48516;SDS011;34310;51.904;4.256;2022-12-29T16:48:27;13.13;;;8.52;;
48516;SDS011;34310;51.904;4.256;2022-12-29T16:51:16;14.88;;;8.70;;
48516;SDS011;34310;51.904;4.256;2022-12-29T16:53:52;15.18;;;8.95;;
48516;SDS011;34310;51.904;4.256;2022-12-29T16:56:21;14.32;;;8.82;;
48516;SDS011;34310;51.904;4.256;2022-12-29T16:58:52;17.17;;;10.00;;
48516;SDS011;34310;51.904;4.256;2022-12-29T17:01:34;16.67;;;10.00;;
48516;SDS011;34310;51.904;4.256;2022-12-29T17:04:05;15.52;;;10.25;;
48516;SDS011;34310;51.904;4.256;2022-12-29T17:06:38;14.32;;;9.48;;
48516;SDS011;34310;51.904;4.256;2022-12-29T17:09:19;16.50;;;9.25;;
48516;SDS011;34310;51.904;4.256;2022-12-29T17:11:49;16.17;;;9.85;;
48516;SDS011;34310;51.904;4.256;2022-12-29T17:14:34;15.32;;;9.68;;
48516;SDS011;34310;51.904;4.256;2022-12-29T17:17:03;14.82;;;8.75;;
48516;SDS011;34310;51.904;4.256;2022-12-29T17:19:36;13.77;;;8.77;;
48516;SDS011;34310;51.904;4.256;2022-12-29T17:22:18;14.43;;;9.10;;
48516;SDS011;34310;51.904;4.256;2022-12-29T17:24:51;14.38;;;9.35;;
48516;SDS011;34310;51.904;4.256;2022-12-29T17:27:21;17.67;;;9.60;;